Redmond, Oregon
Current Conditions -  °F | °C
As of 6:56 PM on Saturday 22 Nov 2014 (Local Time) from KRDM Reporting Station
Broken Clouds Broken Clouds  
Wind Chill: 30°   Ceiling: 9000
Heat Index: 36°   Visibility: 10mi
Dew Point: 32°   Wind: 8mph
Humidity: 86%   Direction: 260°W
Pressure: 30.09"   Gusts: NA
Location:  44.27°N, 121.17°W
Report Text: KRDM 230256Z AUTO 26007KT 10SM BKN090 02/00 A3009 RMK AO2 SLP203 T00220000 53029
Loading
Personal Weather Stations






























Interactive Weather Map New forecast layout! Learn more

10-Day Weather Forecast

Advertisements
Track Severe Weather on mobile